sensor_id;sensor_type;location;lat;lon;timestamp;P1;durP1;ratioP1;P2;durP2;ratioP2
72284;SDS011;60220;53.552;10.092;2022-11-15T00:01:11;42.55;;;22.63;;
72284;SDS011;60220;53.552;10.092;2022-11-15T00:03:48;47.63;;;23.17;;
72284;SDS011;60220;53.552;10.092;2022-11-15T00:06:16;50.45;;;23.67;;
72284;SDS011;60220;53.552;10.092;2022-11-15T00:08:43;44.58;;;22.90;;
72284;SDS011;60220;53.552;10.092;2022-11-15T00:11:11;45.90;;;21.05;;
72284;SDS011;60220;53.552;10.092;2022-11-15T00:13:41;37.85;;;21.98;;
72284;SDS011;60220;53.552;10.092;2022-11-15T00:16:15;44.63;;;23.23;;
72284;SDS011;60220;53.552;10.092;2022-11-15T00:18:50;46.25;;;21.83;;
72284;SDS011;60220;53.552;10.092;2022-11-15T00:21:17;122.30;;;62.13;;
72284;SDS011;60220;53.552;10.092;2022-11-15T00:23:44;46.33;;;25.10;;
72284;SDS011;60220;53.552;10.092;2022-11-15T00:26:12;45.10;;;21.67;;
72284;SDS011;60220;53.552;10.092;2022-11-15T00:28:44;48.70;;;22.37;;
72284;SDS011;60220;53.552;10.092;2022-11-15T00:31:17;47.50;;;23.57;;
72284;SDS011;60220;53.552;10.092;2022-11-15T00:33:44;48.25;;;22.73;;
72284;SDS011;60220;53.552;10.092;2022-11-15T00:36:15;41.88;;;21.85;;
72284;SDS011;60220;53.552;10.092;2022-11-15T00:38:50;44.92;;;22.95;;
72284;SDS011;60220;53.552;10.092;2022-11-15T00:41:16;41.28;;;21.83;;
72284;SDS011;60220;53.552;10.092;2022-11-15T00:43:48;50.40;;;23.10;;
72284;SDS011;60220;53.552;10.092;2022-11-15T00:46:17;44.63;;;21.67;;
72284;SDS011;60220;53.552;10.092;2022-11-15T00:48:48;41.05;;;22.08;;
72284;SDS011;60220;53.552;10.092;2022-11-15T00:51:16;43.35;;;21.80;;
72284;SDS011;60220;53.552;10.092;2022-11-15T00:53:43;46.60;;;22.20;;
72284;SDS011;60220;53.552;10.092;2022-11-15T00:56:10;46.10;;;23.13;;
72284;SDS011;60220;53.552;10.092;2022-11-15T00:58:36;39.13;;;22.00;;
72284;SDS011;60220;53.552;10.092;2022-11-15T01:01:06;44.20;;;22.98;;
72284;SDS011;60220;53.552;10.092;2022-11-15T01:03:35;45.55;;;24.27;;
72284;SDS011;60220;53.552;10.092;2022-11-15T01:06:05;44.42;;;22.88;;
72284;SDS011;60220;53.552;10.092;2022-11-15T01:08:37;43.97;;;22.20;;
72284;SDS011;60220;53.552;10.092;2022-11-15T01:11:05;49.60;;;23.77;;
72284;SDS011;60220;53.552;10.092;2022-11-15T01:13:39;47.03;;;23.95;;
72284;SDS011;60220;53.552;10.092;2022-11-15T01:16:12;45.20;;;23.25;;
72284;SDS011;60220;53.552;10.092;2022-11-15T01:18:41;50.42;;;24.20;;
72284;SDS011;60220;53.552;10.092;2022-11-15T01:21:11;49.65;;;23.73;;
72284;SDS011;60220;53.552;10.092;2022-11-15T01:23:42;43.47;;;22.60;;
72284;SDS011;60220;53.552;10.092;2022-11-15T01:26:11;45.00;;;23.10;;
72284;SDS011;60220;53.552;10.092;2022-11-15T01:28:43;45.38;;;21.88;;
72284;SDS011;60220;53.552;10.092;2022-11-15T01:31:14;38.85;;;21.52;;
72284;SDS011;60220;53.552;10.092;2022-11-15T01:33:47;40.28;;;21.40;;
72284;SDS011;60220;53.552;10.092;2022-11-15T01:36:15;41.92;;;20.73;;
72284;SDS011;60220;53.552;10.092;2022-11-15T01:38:47;41.28;;;21.40;;
72284;SDS011;60220;53.552;10.092;2022-11-15T01:41:22;47.47;;;22.63;;
72284;SDS011;60220;53.552;10.092;2022-11-15T01:47:11;43.30;;;22.35;;
72284;SDS011;60220;53.552;10.092;2022-11-15T01:49:47;43.17;;;22.60;;
72284;SDS011;60220;53.552;10.092;2022-11-15T01:52:24;47.10;;;22.67;;
72284;SDS011;60220;53.552;10.092;2022-11-15T01:57:30;42.80;;;22.98;;
72284;SDS011;60220;53.552;10.092;2022-11-15T02:00:00;43.92;;;20.48;;
72284;SDS011;60220;53.552;10.092;2022-11-15T02:02:30;45.17;;;22.25;;
72284;SDS011;60220;53.552;10.092;2022-11-15T02:04:59;43.15;;;22.58;;
72284;SDS011;60220;53.552;10.092;2022-11-15T02:07:32;40.97;;;22.02;;
72284;SDS011;60220;53.552;10.092;2022-11-15T02:10:04;43.75;;;21.63;;
72284;SDS011;60220;53.552;10.092;2022-11-15T02:12:37;40.25;;;20.80;;
72284;SDS011;60220;53.552;10.092;2022-11-15T02:15:04;45.40;;;22.58;;
72284;SDS011;60220;53.552;10.092;2022-11-15T02:17:44;41.85;;;21.02;;
72284;SDS011;60220;53.552;10.092;2022-11-15T02:23:24;43.05;;;20.45;;
72284;SDS011;60220;53.552;10.092;2022-11-15T02:26:26;39.22;;;20.10;;
72284;SDS011;60220;53.552;10.092;2022-11-15T02:29:13;42.65;;;22.33;;
72284;SDS011;60220;53.552;10.092;2022-11-15T02:31:59;44.33;;;20.90;;
72284;SDS011;60220;53.552;10.092;2022-11-15T02:34:33;42.28;;;21.77;;
72284;SDS011;60220;53.552;10.092;2022-11-15T02:37:10;39.17;;;21.90;;
72284;SDS011;60220;53.552;10.092;2022-11-15T02:42:24;45.53;;;21.92;;
72284;SDS011;60220;53.552;10.092;2022-11-15T02:45:11;44.10;;;20.17;;
72284;SDS011;60220;53.552;10.092;2022-11-15T02:47:47;37.90;;;21.52;;
72284;SDS011;60220;53.552;10.092;2022-11-15T02:50:20;44.10;;;21.40;;
72284;SDS011;60220;53.552;10.092;2022-11-15T02:52:55;37.85;;;20.73;;
72284;SDS011;60220;53.552;10.092;2022-11-15T02:55:29;43.08;;;21.38;;
72284;SDS011;60220;53.552;10.092;2022-11-15T02:58:05;46.45;;;22.45;;
72284;SDS011;60220;53.552;10.092;2022-11-15T03:00:46;42.03;;;20.33;;
72284;SDS011;60220;53.552;10.092;2022-11-15T03:06:24;36.92;;;20.25;;
72284;SDS011;60220;53.552;10.092;2022-11-15T03:09:01;36.70;;;19.60;;
72284;SDS011;60220;53.552;10.092;2022-11-15T03:14:08;38.35;;;18.27;;
72284;SDS011;60220;53.552;10.092;2022-11-15T03:16:45;42.05;;;19.42;;
72284;SDS011;60220;53.552;10.092;2022-11-15T03:19:29;36.75;;;19.00;;
72284;SDS011;60220;53.552;10.092;2022-11-15T03:22:02;41.50;;;19.85;;
72284;SDS011;60220;53.552;10.092;2022-11-15T03:24:35;35.10;;;18.60;;
72284;SDS011;60220;53.552;10.092;2022-11-15T03:27:04;37.92;;;19.83;;
72284;SDS011;60220;53.552;10.092;2022-11-15T03:29:33;37.40;;;19.33;;
72284;SDS011;60220;53.552;10.092;2022-11-15T03:32:08;37.67;;;20.00;;
72284;SDS011;60220;53.552;10.092;2022-11-15T03:34:41;38.53;;;19.10;;
72284;SDS011;60220;53.552;10.092;2022-11-15T03:37:13;43.17;;;19.88;;
72284;SDS011;60220;53.552;10.092;2022-11-15T03:39:50;37.65;;;19.88;;
72284;SDS011;60220;53.552;10.092;2022-11-15T03:42:27;39.70;;;19.15;;
72284;SDS011;60220;53.552;10.092;2022-11-15T03:45:01;37.15;;;19.33;;
72284;SDS011;60220;53.552;10.092;2022-11-15T03:47:35;39.85;;;20.50;;
72284;SDS011;60220;53.552;10.092;2022-11-15T03:50:10;39.80;;;19.20;;
72284;SDS011;60220;53.552;10.092;2022-11-15T03:55:13;49.25;;;26.48;;
72284;SDS011;60220;53.552;10.092;2022-11-15T03:57:43;39.80;;;18.30;;
72284;SDS011;60220;53.552;10.092;2022-11-15T04:00:11;38.95;;;19.42;;
72284;SDS011;60220;53.552;10.092;2022-11-15T04:02:38;37.38;;;18.77;;
72284;SDS011;60220;53.552;10.092;2022-11-15T04:05:05;37.85;;;19.10;;
72284;SDS011;60220;53.552;10.092;2022-11-15T04:07:36;30.10;;;17.17;;
72284;SDS011;60220;53.552;10.092;2022-11-15T04:10:04;33.10;;;18.67;;
72284;SDS011;60220;53.552;10.092;2022-11-15T04:12:34;36.45;;;17.65;;
72284;SDS011;60220;53.552;10.092;2022-11-15T04:15:03;33.42;;;17.58;;
72284;SDS011;60220;53.552;10.092;2022-11-15T04:17:37;38.63;;;18.38;;
72284;SDS011;60220;53.552;10.092;2022-11-15T04:20:21;33.40;;;18.20;;
72284;SDS011;60220;53.552;10.092;2022-11-15T04:23:10;36.30;;;18.25;;
72284;SDS011;60220;53.552;10.092;2022-11-15T04:25:58;39.22;;;20.00;;
72284;SDS011;60220;53.552;10.092;2022-11-15T04:28:29;35.45;;;18.25;;
72284;SDS011;60220;53.552;10.092;2022-11-15T04:30:56;31.27;;;17.02;;
72284;SDS011;60220;53.552;10.092;2022-11-15T04:33:25;31.60;;;16.75;;
72284;SDS011;60220;53.552;10.092;2022-11-15T04:35:57;35.90;;;18.48;;
72284;SDS011;60220;53.552;10.092;2022-11-15T04:38:46;29.95;;;17.10;;
72284;SDS011;60220;53.552;10.092;2022-11-15T04:41:12;41.45;;;20.85;;
72284;SDS011;60220;53.552;10.092;2022-11-15T04:43:41;34.97;;;15.90;;
72284;SDS011;60220;53.552;10.092;2022-11-15T04:46:09;35.47;;;17.95;;
72284;SDS011;60220;53.552;10.092;2022-11-15T04:48:41;35.70;;;17.33;;
72284;SDS011;60220;53.552;10.092;2022-11-15T04:51:07;34.13;;;16.88;;
72284;SDS011;60220;53.552;10.092;2022-11-15T04:53:36;37.15;;;17.10;;
72284;SDS011;60220;53.552;10.092;2022-11-15T04:56:15;34.42;;;15.90;;
72284;SDS011;60220;53.552;10.092;2022-11-15T04:58:43;30.90;;;16.95;;
72284;SDS011;60220;53.552;10.092;2022-11-15T05:01:13;27.90;;;15.50;;
72284;SDS011;60220;53.552;10.092;2022-11-15T05:03:41;31.65;;;16.45;;
72284;SDS011;60220;53.552;10.092;2022-11-15T05:06:25;33.60;;;16.05;;
72284;SDS011;60220;53.552;10.092;2022-11-15T05:08:54;29.58;;;15.55;;
72284;SDS011;60220;53.552;10.092;2022-11-15T05:11:23;47.20;;;23.17;;
72284;SDS011;60220;53.552;10.092;2022-11-15T05:13:50;37.08;;;17.80;;
72284;SDS011;60220;53.552;10.092;2022-11-15T05:16:30;29.45;;;16.13;;
72284;SDS011;60220;53.552;10.092;2022-11-15T05:18:59;28.65;;;14.63;;
72284;SDS011;60220;53.552;10.092;2022-11-15T05:21:27;34.33;;;15.52;;
72284;SDS011;60220;53.552;10.092;2022-11-15T05:23:56;28.23;;;14.63;;
72284;SDS011;60220;53.552;10.092;2022-11-15T05:26:24;31.02;;;15.43;;
72284;SDS011;60220;53.552;10.092;2022-11-15T05:28:54;51.30;;;26.40;;
72284;SDS011;60220;53.552;10.092;2022-11-15T05:31:21;27.60;;;15.30;;
72284;SDS011;60220;53.552;10.092;2022-11-15T05:33:48;39.30;;;20.05;;
72284;SDS011;60220;53.552;10.092;2022-11-15T05:36:21;33.20;;;16.25;;
72284;SDS011;60220;53.552;10.092;2022-11-15T05:38:57;24.63;;;14.93;;
72284;SDS011;60220;53.552;10.092;2022-11-15T05:41:30;43.38;;;22.05;;
72284;SDS011;60220;53.552;10.092;2022-11-15T05:44:00;24.63;;;14.48;;
72284;SDS011;60220;53.552;10.092;2022-11-15T05:46:28;31.30;;;16.48;;
72284;SDS011;60220;53.552;10.092;2022-11-15T05:49:01;26.27;;;14.02;;
72284;SDS011;60220;53.552;10.092;2022-11-15T05:51:35;31.58;;;16.67;;
72284;SDS011;60220;53.552;10.092;2022-11-15T05:54:11;24.67;;;12.88;;
72284;SDS011;60220;53.552;10.092;2022-11-15T05:56:43;26.80;;;13.70;;
72284;SDS011;60220;53.552;10.092;2022-11-15T05:59:10;24.23;;;12.82;;
72284;SDS011;60220;53.552;10.092;2022-11-15T06:01:43;33.40;;;18.27;;
72284;SDS011;60220;53.552;10.092;2022-11-15T06:04:15;22.98;;;13.57;;
72284;SDS011;60220;53.552;10.092;2022-11-15T06:06:42;24.25;;;14.35;;
72284;SDS011;60220;53.552;10.092;2022-11-15T06:09:09;24.42;;;14.73;;
72284;SDS011;60220;53.552;10.092;2022-11-15T06:11:36;27.63;;;15.00;;
72284;SDS011;60220;53.552;10.092;2022-11-15T06:14:04;29.73;;;14.07;;
72284;SDS011;60220;53.552;10.092;2022-11-15T06:16:31;21.95;;;13.27;;
72284;SDS011;60220;53.552;10.092;2022-11-15T06:18:58;21.08;;;12.77;;
72284;SDS011;60220;53.552;10.092;2022-11-15T06:21:25;21.38;;;12.35;;
72284;SDS011;60220;53.552;10.092;2022-11-15T06:23:53;23.85;;;13.05;;
72284;SDS011;60220;53.552;10.092;2022-11-15T06:26:20;27.38;;;13.90;;
72284;SDS011;60220;53.552;10.092;2022-11-15T06:28:48;23.40;;;13.50;;
72284;SDS011;60220;53.552;10.092;2022-11-15T06:31:17;47.63;;;28.77;;
72284;SDS011;60220;53.552;10.092;2022-11-15T06:33:43;23.73;;;13.10;;
72284;SDS011;60220;53.552;10.092;2022-11-15T06:36:12;71.40;;;42.22;;
72284;SDS011;60220;53.552;10.092;2022-11-15T06:38:43;28.33;;;17.80;;
72284;SDS011;60220;53.552;10.092;2022-11-15T06:41:11;59.35;;;32.67;;
72284;SDS011;60220;53.552;10.092;2022-11-15T06:43:39;23.25;;;13.23;;
72284;SDS011;60220;53.552;10.092;2022-11-15T06:46:06;21.45;;;12.95;;
72284;SDS011;60220;53.552;10.092;2022-11-15T06:48:35;24.25;;;12.90;;
72284;SDS011;60220;53.552;10.092;2022-11-15T06:51:04;24.27;;;12.75;;
72284;SDS011;60220;53.552;10.092;2022-11-15T06:53:31;23.65;;;13.07;;
72284;SDS011;60220;53.552;10.092;2022-11-15T06:55:58;23.23;;;14.07;;
72284;SDS011;60220;53.552;10.092;2022-11-15T06:58:28;23.70;;;14.02;;
72284;SDS011;60220;53.552;10.092;2022-11-15T07:00:58;23.40;;;13.13;;
72284;SDS011;60220;53.552;10.092;2022-11-15T07:03:25;23.90;;;13.55;;
72284;SDS011;60220;53.552;10.092;2022-11-15T07:05:54;22.38;;;13.00;;
72284;SDS011;60220;53.552;10.092;2022-11-15T07:08:22;22.08;;;13.48;;
72284;SDS011;60220;53.552;10.092;2022-11-15T07:10:52;21.52;;;12.85;;
72284;SDS011;60220;53.552;10.092;2022-11-15T07:13:19;24.30;;;13.98;;
72284;SDS011;60220;53.552;10.092;2022-11-15T07:15:45;23.58;;;14.82;;
72284;SDS011;60220;53.552;10.092;2022-11-15T07:18:12;23.88;;;14.20;;
72284;SDS011;60220;53.552;10.092;2022-11-15T07:20:39;26.70;;;13.77;;
72284;SDS011;60220;53.552;10.092;2022-11-15T07:23:07;29.60;;;14.77;;
72284;SDS011;60220;53.552;10.092;2022-11-15T07:25:34;38.90;;;21.42;;
72284;SDS011;60220;53.552;10.092;2022-11-15T07:28:00;23.60;;;14.50;;
72284;SDS011;60220;53.552;10.092;2022-11-15T07:30:27;22.45;;;13.27;;
72284;SDS011;60220;53.552;10.092;2022-11-15T07:32:55;23.25;;;12.07;;
72284;SDS011;60220;53.552;10.092;2022-11-15T07:35:21;27.25;;;13.88;;
72284;SDS011;60220;53.552;10.092;2022-11-15T07:37:55;24.67;;;13.23;;
72284;SDS011;60220;53.552;10.092;2022-11-15T07:42:58;25.15;;;13.70;;
72284;SDS011;60220;53.552;10.092;2022-11-15T07:45:25;30.17;;;13.68;;
72284;SDS011;60220;53.552;10.092;2022-11-15T07:47:52;26.95;;;14.00;;
72284;SDS011;60220;53.552;10.092;2022-11-15T07:50:21;20.65;;;12.75;;
72284;SDS011;60220;53.552;10.092;2022-11-15T07:52:53;22.30;;;13.02;;
72284;SDS011;60220;53.552;10.092;2022-11-15T07:55:21;28.20;;;15.05;;
72284;SDS011;60220;53.552;10.092;2022-11-15T07:57:49;24.65;;;14.18;;
72284;SDS011;60220;53.552;10.092;2022-11-15T08:00:16;25.38;;;13.90;;
72284;SDS011;60220;53.552;10.092;2022-11-15T08:02:44;20.70;;;12.85;;
72284;SDS011;60220;53.552;10.092;2022-11-15T08:05:10;21.25;;;13.13;;
72284;SDS011;60220;53.552;10.092;2022-11-15T08:07:37;23.88;;;14.18;;
72284;SDS011;60220;53.552;10.092;2022-11-15T08:10:05;21.73;;;13.13;;
72284;SDS011;60220;53.552;10.092;2022-11-15T08:12:35;26.52;;;13.13;;
72284;SDS011;60220;53.552;10.092;2022-11-15T08:15:04;22.20;;;13.45;;
72284;SDS011;60220;53.552;10.092;2022-11-15T08:17:31;24.73;;;13.68;;
72284;SDS011;60220;53.552;10.092;2022-11-15T08:19:59;29.63;;;14.10;;
72284;SDS011;60220;53.552;10.092;2022-11-15T08:22:26;26.45;;;12.77;;
72284;SDS011;60220;53.552;10.092;2022-11-15T08:24:53;25.40;;;12.88;;
72284;SDS011;60220;53.552;10.092;2022-11-15T08:27:22;28.67;;;17.30;;
72284;SDS011;60220;53.552;10.092;2022-11-15T08:29:48;23.25;;;14.05;;
72284;SDS011;60220;53.552;10.092;2022-11-15T08:32:17;39.55;;;20.13;;
72284;SDS011;60220;53.552;10.092;2022-11-15T08:34:44;48.75;;;26.77;;
72284;SDS011;60220;53.552;10.092;2022-11-15T08:37:10;23.80;;;13.95;;
72284;SDS011;60220;53.552;10.092;2022-11-15T08:39:37;26.20;;;13.57;;
72284;SDS011;60220;53.552;10.092;2022-11-15T08:42:04;24.73;;;14.40;;
72284;SDS011;60220;53.552;10.092;2022-11-15T08:44:31;24.00;;;13.32;;
72284;SDS011;60220;53.552;10.092;2022-11-15T08:46:57;20.80;;;12.77;;
72284;SDS011;60220;53.552;10.092;2022-11-15T08:49:27;23.20;;;13.13;;
72284;SDS011;60220;53.552;10.092;2022-11-15T08:51:54;21.38;;;12.65;;
72284;SDS011;60220;53.552;10.092;2022-11-15T08:54:21;21.85;;;12.77;;
72284;SDS011;60220;53.552;10.092;2022-11-15T08:56:47;22.55;;;13.48;;
72284;SDS011;60220;53.552;10.092;2022-11-15T08:59:16;21.30;;;12.85;;
72284;SDS011;60220;53.552;10.092;2022-11-15T09:01:45;25.92;;;14.40;;
72284;SDS011;60220;53.552;10.092;2022-11-15T09:04:14;24.95;;;16.52;;
72284;SDS011;60220;53.552;10.092;2022-11-15T09:06:42;30.15;;;18.38;;
72284;SDS011;60220;53.552;10.092;2022-11-15T09:09:11;22.55;;;13.25;;
72284;SDS011;60220;53.552;10.092;2022-11-15T09:11:38;21.08;;;12.25;;
72284;SDS011;60220;53.552;10.092;2022-11-15T09:14:05;20.38;;;13.27;;
72284;SDS011;60220;53.552;10.092;2022-11-15T09:16:31;25.73;;;13.75;;
72284;SDS011;60220;53.552;10.092;2022-11-15T09:18:58;22.75;;;13.13;;
72284;SDS011;60220;53.552;10.092;2022-11-15T09:21:28;26.55;;;12.75;;
72284;SDS011;60220;53.552;10.092;2022-11-15T09:23:56;22.23;;;13.80;;
72284;SDS011;60220;53.552;10.092;2022-11-15T09:26:23;27.42;;;13.80;;
72284;SDS011;60220;53.552;10.092;2022-11-15T09:28:53;26.73;;;14.73;;
72284;SDS011;60220;53.552;10.092;2022-11-15T09:31:21;26.83;;;14.25;;
72284;SDS011;60220;53.552;10.092;2022-11-15T09:33:48;20.75;;;12.50;;
72284;SDS011;60220;53.552;10.092;2022-11-15T09:36:15;27.98;;;13.48;;
72284;SDS011;60220;53.552;10.092;2022-11-15T09:38:42;25.45;;;13.07;;
72284;SDS011;60220;53.552;10.092;2022-11-15T09:44:29;29.35;;;16.63;;
72284;SDS011;60220;53.552;10.092;2022-11-15T09:47:09;34.97;;;19.25;;
72284;SDS011;60220;53.552;10.092;2022-11-15T09:49:58;22.60;;;13.27;;
72284;SDS011;60220;53.552;10.092;2022-11-15T09:52:29;25.00;;;14.60;;
72284;SDS011;60220;53.552;10.092;2022-11-15T09:54:56;26.58;;;12.90;;
72284;SDS011;60220;53.552;10.092;2022-11-15T09:57:37;20.73;;;12.55;;
72284;SDS011;60220;53.552;10.092;2022-11-15T10:00:09;21.60;;;12.25;;
72284;SDS011;60220;53.552;10.092;2022-11-15T10:02:46;22.95;;;12.45;;
72284;SDS011;60220;53.552;10.092;2022-11-15T10:05:25;28.60;;;15.10;;
72284;SDS011;60220;53.552;10.092;2022-11-15T10:07:56;20.42;;;12.43;;
72284;SDS011;60220;53.552;10.092;2022-11-15T10:10:34;50.25;;;28.58;;
72284;SDS011;60220;53.552;10.092;2022-11-15T10:13:06;42.15;;;23.55;;
72284;SDS011;60220;53.552;10.092;2022-11-15T10:15:42;22.45;;;12.30;;
72284;SDS011;60220;53.552;10.092;2022-11-15T10:18:14;18.45;;;11.23;;
72284;SDS011;60220;53.552;10.092;2022-11-15T10:20:46;17.30;;;11.07;;
72284;SDS011;60220;53.552;10.092;2022-11-15T10:23:16;19.92;;;10.88;;
72284;SDS011;60220;53.552;10.092;2022-11-15T10:25:45;16.88;;;9.90;;
72284;SDS011;60220;53.552;10.092;2022-11-15T10:28:16;19.88;;;10.65;;
72284;SDS011;60220;53.552;10.092;2022-11-15T10:30:48;16.45;;;9.55;;
72284;SDS011;60220;53.552;10.092;2022-11-15T10:33:23;18.30;;;10.85;;
72284;SDS011;60220;53.552;10.092;2022-11-15T10:38:52;14.93;;;9.77;;
72284;SDS011;60220;53.552;10.092;2022-11-15T10:41:21;17.58;;;9.52;;
72284;SDS011;60220;53.552;10.092;2022-11-15T10:44:02;16.50;;;9.38;;
72284;SDS011;60220;53.552;10.092;2022-11-15T10:46:36;13.55;;;8.50;;
72284;SDS011;60220;53.552;10.092;2022-11-15T10:49:11;12.48;;;8.70;;
72284;SDS011;60220;53.552;10.092;2022-11-15T10:51:40;16.40;;;8.98;;
72284;SDS011;60220;53.552;10.092;2022-11-15T10:54:10;21.80;;;9.98;;
72284;SDS011;60220;53.552;10.092;2022-11-15T10:56:41;12.98;;;8.55;;
72284;SDS011;60220;53.552;10.092;2022-11-15T10:59:16;14.15;;;8.93;;
72284;SDS011;60220;53.552;10.092;2022-11-15T11:01:51;13.35;;;8.85;;
72284;SDS011;60220;53.552;10.092;2022-11-15T11:04:18;17.23;;;9.32;;
72284;SDS011;60220;53.552;10.092;2022-11-15T11:06:46;15.32;;;9.07;;
72284;SDS011;60220;53.552;10.092;2022-11-15T11:09:20;18.10;;;8.48;;
72284;SDS011;60220;53.552;10.092;2022-11-15T11:11:53;16.27;;;8.68;;
72284;SDS011;60220;53.552;10.092;2022-11-15T11:14:24;16.25;;;8.88;;
72284;SDS011;60220;53.552;10.092;2022-11-15T11:16:57;14.10;;;9.57;;
72284;SDS011;60220;53.552;10.092;2022-11-15T11:19:32;19.95;;;9.60;;
72284;SDS011;60220;53.552;10.092;2022-11-15T11:22:17;18.67;;;9.07;;
72284;SDS011;60220;53.552;10.092;2022-11-15T11:24:53;14.57;;;8.40;;
72284;SDS011;60220;53.552;10.092;2022-11-15T11:27:41;27.83;;;16.35;;
72284;SDS011;60220;53.552;10.092;2022-11-15T11:38:15;12.90;;;8.35;;
72284;SDS011;60220;53.552;10.092;2022-11-15T11:40:54;15.13;;;8.98;;
72284;SDS011;60220;53.552;10.092;2022-11-15T11:43:32;16.13;;;9.02;;
72284;SDS011;60220;53.552;10.092;2022-11-15T11:46:17;18.85;;;9.93;;
72284;SDS011;60220;53.552;10.092;2022-11-15T11:48:56;20.17;;;8.82;;
72284;SDS011;60220;53.552;10.092;2022-11-15T11:51:27;17.85;;;9.68;;
72284;SDS011;60220;53.552;10.092;2022-11-15T11:53:59;14.40;;;8.73;;
72284;SDS011;60220;53.552;10.092;2022-11-15T11:56:31;14.75;;;8.38;;
72284;SDS011;60220;53.552;10.092;2022-11-15T11:59:00;15.52;;;9.65;;
72284;SDS011;60220;53.552;10.092;2022-11-15T12:01:35;15.57;;;9.40;;
72284;SDS011;60220;53.552;10.092;2022-11-15T12:04:09;20.52;;;9.48;;
72284;SDS011;60220;53.552;10.092;2022-11-15T12:06:41;16.85;;;8.52;;
72284;SDS011;60220;53.552;10.092;2022-11-15T12:09:12;16.25;;;9.13;;
72284;SDS011;60220;53.552;10.092;2022-11-15T12:11:48;17.20;;;9.38;;
72284;SDS011;60220;53.552;10.092;2022-11-15T12:14:23;18.38;;;9.18;;
72284;SDS011;60220;53.552;10.092;2022-11-15T12:16:57;15.85;;;8.73;;
72284;SDS011;60220;53.552;10.092;2022-11-15T12:19:26;13.00;;;8.77;;
72284;SDS011;60220;53.552;10.092;2022-11-15T12:21:55;22.38;;;9.15;;
72284;SDS011;60220;53.552;10.092;2022-11-15T12:24:27;13.77;;;8.95;;
72284;SDS011;60220;53.552;10.092;2022-11-15T12:26:57;17.67;;;9.18;;
72284;SDS011;60220;53.552;10.092;2022-11-15T12:29:31;14.02;;;9.65;;
72284;SDS011;60220;53.552;10.092;2022-11-15T12:32:03;12.52;;;8.00;;
72284;SDS011;60220;53.552;10.092;2022-11-15T12:34:42;13.43;;;8.38;;
72284;SDS011;60220;53.552;10.092;2022-11-15T12:40:04;18.55;;;9.00;;
72284;SDS011;60220;53.552;10.092;2022-11-15T12:42:56;15.52;;;8.43;;
72284;SDS011;60220;53.552;10.092;2022-11-15T12:45:26;11.02;;;7.80;;
72284;SDS011;60220;53.552;10.092;2022-11-15T12:47:57;14.95;;;9.05;;
72284;SDS011;60220;53.552;10.092;2022-11-15T12:50:53;14.10;;;8.20;;
72284;SDS011;60220;53.552;10.092;2022-11-15T12:53:25;11.60;;;7.75;;
72284;SDS011;60220;53.552;10.092;2022-11-15T12:56:08;17.52;;;8.02;;
72284;SDS011;60220;53.552;10.092;2022-11-15T12:58:44;13.48;;;8.43;;
72284;SDS011;60220;53.552;10.092;2022-11-15T13:04:22;33.63;;;19.38;;
72284;SDS011;60220;53.552;10.092;2022-11-15T13:06:52;62.70;;;37.17;;
72284;SDS011;60220;53.552;10.092;2022-11-15T13:15:31;16.73;;;8.98;;
72284;SDS011;60220;53.552;10.092;2022-11-15T13:18:19;12.95;;;8.57;;
72284;SDS011;60220;53.552;10.092;2022-11-15T13:20:55;20.00;;;9.50;;
72284;SDS011;60220;53.552;10.092;2022-11-15T13:23:22;14.23;;;8.18;;
72284;SDS011;60220;53.552;10.092;2022-11-15T13:25:57;13.52;;;8.57;;
72284;SDS011;60220;53.552;10.092;2022-11-15T13:28:33;15.93;;;8.90;;
72284;SDS011;60220;53.552;10.092;2022-11-15T13:31:21;12.05;;;8.15;;
72284;SDS011;60220;53.552;10.092;2022-11-15T13:33:50;11.52;;;8.02;;
72284;SDS011;60220;53.552;10.092;2022-11-15T13:36:20;15.55;;;7.97;;
72284;SDS011;60220;53.552;10.092;2022-11-15T13:38:56;13.27;;;8.45;;
72284;SDS011;60220;53.552;10.092;2022-11-15T13:41:29;16.05;;;8.93;;
72284;SDS011;60220;53.552;10.092;2022-11-15T13:43:58;13.27;;;8.23;;
72284;SDS011;60220;53.552;10.092;2022-11-15T13:46:26;11.48;;;8.45;;
72284;SDS011;60220;53.552;10.092;2022-11-15T13:48:55;12.80;;;8.10;;
72284;SDS011;60220;53.552;10.092;2022-11-15T13:51:32;12.45;;;8.18;;
72284;SDS011;60220;53.552;10.092;2022-11-15T13:54:07;16.23;;;8.27;;
72284;SDS011;60220;53.552;10.092;2022-11-15T13:56:45;11.73;;;7.53;;
72284;SDS011;60220;53.552;10.092;2022-11-15T13:59:24;13.75;;;7.75;;
72284;SDS011;60220;53.552;10.092;2022-11-15T14:01:55;14.68;;;7.85;;
72284;SDS011;60220;53.552;10.092;2022-11-15T14:04:24;16.42;;;8.48;;
72284;SDS011;60220;53.552;10.092;2022-11-15T14:06:56;13.18;;;8.98;;
72284;SDS011;60220;53.552;10.092;2022-11-15T14:09:29;12.50;;;7.47;;
72284;SDS011;60220;53.552;10.092;2022-11-15T14:11:59;13.77;;;8.93;;
72284;SDS011;60220;53.552;10.092;2022-11-15T14:14:29;13.60;;;7.80;;
72284;SDS011;60220;53.552;10.092;2022-11-15T14:16:59;10.70;;;7.60;;
72284;SDS011;60220;53.552;10.092;2022-11-15T14:19:33;15.10;;;7.68;;
72284;SDS011;60220;53.552;10.092;2022-11-15T14:22:13;11.52;;;7.57;;
72284;SDS011;60220;53.552;10.092;2022-11-15T14:24:43;11.93;;;7.50;;
72284;SDS011;60220;53.552;10.092;2022-11-15T14:27:15;13.45;;;7.43;;
72284;SDS011;60220;53.552;10.092;2022-11-15T14:29:47;13.52;;;7.95;;
72284;SDS011;60220;53.552;10.092;2022-11-15T14:32:17;11.85;;;7.40;;
72284;SDS011;60220;53.552;10.092;2022-11-15T14:34:48;12.25;;;8.00;;
72284;SDS011;60220;53.552;10.092;2022-11-15T14:37:22;10.88;;;7.63;;
72284;SDS011;60220;53.552;10.092;2022-11-15T14:39:50;14.90;;;8.02;;
72284;SDS011;60220;53.552;10.092;2022-11-15T14:42:18;11.40;;;7.25;;
72284;SDS011;60220;53.552;10.092;2022-11-15T14:44:45;12.43;;;8.23;;
72284;SDS011;60220;53.552;10.092;2022-11-15T14:47:12;12.98;;;7.93;;
72284;SDS011;60220;53.552;10.092;2022-11-15T14:49:39;12.65;;;7.45;;
72284;SDS011;60220;53.552;10.092;2022-11-15T14:52:26;12.02;;;7.75;;
72284;SDS011;60220;53.552;10.092;2022-11-15T14:54:54;15.45;;;9.00;;
72284;SDS011;60220;53.552;10.092;2022-11-15T14:57:21;12.38;;;7.95;;
72284;SDS011;60220;53.552;10.092;2022-11-15T14:59:48;12.00;;;8.00;;
72284;SDS011;60220;53.552;10.092;2022-11-15T15:02:16;10.18;;;7.68;;
72284;SDS011;60220;53.552;10.092;2022-11-15T15:04:44;13.85;;;8.07;;
72284;SDS011;60220;53.552;10.092;2022-11-15T15:07:11;13.32;;;8.35;;
72284;SDS011;60220;53.552;10.092;2022-11-15T15:09:39;15.50;;;8.25;;
72284;SDS011;60220;53.552;10.092;2022-11-15T15:12:12;10.27;;;7.53;;
72284;SDS011;60220;53.552;10.092;2022-11-15T15:14:42;10.43;;;7.53;;
72284;SDS011;60220;53.552;10.092;2022-11-15T15:17:09;13.20;;;7.57;;
72284;SDS011;60220;53.552;10.092;2022-11-15T15:19:36;20.75;;;8.60;;
72284;SDS011;60220;53.552;10.092;2022-11-15T15:22:02;13.05;;;8.35;;
72284;SDS011;60220;53.552;10.092;2022-11-15T15:24:29;10.45;;;7.55;;
72284;SDS011;60220;53.552;10.092;2022-11-15T15:26:57;14.85;;;8.43;;